Launchpad.net

freedesktop.org Bugzilla

Summary

freedesktop.org hosts numerous open projects, including X.Org, Mesa, D-Bus, LibreOffice, and many cross-desktop projects and specifications.

Bug watches

175 of 6153 results
Launchpad bug Remote bug Status Last check Next check
#1674256: Corrupted screen in VirtualBox thin client 100295 NEW 2017-03-21 2017-03-23 13:10:10 UTC
#1647617: (Private) -
#1647617: (Private) -
#1671799: FFe: xserver 1.19.3 865 ASSIGNED 2017-03-21 2017-03-22 22:16:45 UTC
#1612917: Parts of words are hidden in Thunderbird 88584 NEW 21 hours ago 2017-03-23 01:09:39 UTC
#1661933: text is sometimes partially missing after suspend in non native applications in kubuntu 88584 NEW 21 hours ago 2017-03-23 01:09:39 UTC
#1571416: System freezes shortly after reaching the desktop (Ubuntu MATE 16.04, PowerPC) 99195 NEW 21 hours ago 2017-03-23 01:09:43 UTC
#1539209: pulseaudio crashed with SIGABRT in pa_alsa_path_set_volume() 65520 NEW 23 hours ago 2017-03-25 08:44:17 UTC
#1661371: [zesty] doesn't offer a window to install missing gstreamer codecs 99879 RESOLVED NOTOURBUG 2017-03-21 2017-03-26 06:35:58 UTC
#1665298: (Private) -
#1661934: Numerous deleted DRM mmaped objects in Xorg server memory mappings 99807 NEW 2017-03-20 2017-03-23 23:56:23 UTC
#1553441: [Asus K55DR] When VGA plugged into laptop, only one monitor working at a time 99784 NEW 6 hours ago 2017-03-23 15:42:32 UTC
#1659231: drm/i915: Unity-control-center (or any other settings module) makes the system unresponsive (Unity7, Zesty) for Kernel > 4.6 96781 NEEDINFO 46 minutes ago 2017-03-23 21:43:50 UTC
#1659231: drm/i915: Unity-control-center (or any other settings module) makes the system unresponsive (Unity7, Zesty) for Kernel > 4.6 93782 REOPENED 3 hours ago 2017-03-23 18:32:30 UTC
#1663379: Problems in 17.04 alfa 2 99747 RESOLVED FIXED 2 hours ago 2017-03-23 19:37:14 UTC
#1663391: Mesa+AMD Video artefacts 99747 RESOLVED FIXED 2017-03-19 2017-03-22 23:16:18 UTC
#1661227: Failed openstack-zaqar service after undercloud upgrade 84923 RESOLVED FIXED 1 hour ago 2017-03-23 20:39:00 UTC
#1661695: screen flickering raedon 73116 NEW 1 hour ago 2017-03-23 20:38:37 UTC
#1257153: Option "AreaBottomEdge" ignores other areas when active 66532 NEW 47 minutes ago 2017-03-23 21:42:33 UTC
#1659183: English (Canada) input source is missing the left backslash key 99596 NEW 2017-03-21 2017-03-24 20:22:45 UTC
#1584314: Togo keyboard layout / compose keys 92344 RESOLVED FIXED 11 hours ago 2017-03-24 15:26:13 UTC
#1656620: Discoloration in some XFCE icons and window borders 99078 NEW 2017-03-19 2017-03-23 16:02:45 UTC
#1651981: shaking screen 98897 NEW 46 minutes ago 2017-03-23 21:43:53 UTC
#1655752: Xorg crashed with SIGABRT in libinput_device_config_tap_get_finger_count() 97117 46 minutes ago 2017-03-23 21:43:51 UTC
#1635996: Libreoffice temporarily hangs / freezes Ubuntu 16.10 99423 NEW 1 hour ago 2017-03-23 20:39:30 UTC
#1655752: Xorg crashed with SIGABRT in libinput_device_config_tap_get_finger_count() 99390 46 minutes ago 2017-03-23 21:43:53 UTC
#1655782: [FFe] Elfdalian layout + merge with Debian 2.19-1 98177 3 hours ago 2017-03-23 18:32:36 UTC
#1655189: Cannot record videos into Theora 99342 3 hours ago 2017-03-23 18:32:37 UTC
#1651342: Red channel missing when displaying a jpeg image 99310 VERIFIED DUPLICATE 46 minutes ago 2017-03-23 21:43:53 UTC
#1651342: Red channel missing when displaying a jpeg image 99078 NEW 2 hours ago 2017-03-23 19:37:14 UTC
#1652486: mesa gpu lockup 93649 46 minutes ago 2017-03-23 21:43:46 UTC
#1653560: smartctl should output RAW_VALUE as Temperature_Celcius 99269 46 minutes ago 2017-03-23 21:43:53 UTC
#319376: No Dvorak layout for multilingual keyboards 96537 1 hour ago 2017-03-23 20:39:29 UTC
#1651910: radeon: black screen after upgrade from 14.04 to 16.04 on RS780 99181 1 hour ago 2017-03-23 20:39:30 UTC
#1651924: [HP Pavilion Notebook - 15-ab114no] Intermittent black screen 95306 NEW 2 hours ago 2017-03-23 19:37:13 UTC
#1611124: W: Possible missing firmware /lib/firmware/i915/kbl_guc_ver9_14.bin for module i915 97825 CLOSED FIXED 1 hour ago 2017-03-23 20:39:29 UTC
#1647917: Invalid access when opening eps with ghostscript 9.19~dfsg+1-0ubuntu6.2 and libspectre 0.2.8 99012 3 hours ago 2017-03-23 18:32:37 UTC
#1618678: Disk Device Driver Reported Error: DID_ERROR ... DRIVER SENSE 98991 NEW 2 hours ago 2017-03-23 19:37:14 UTC
#311816: Georgian letters U+10FA & U+10FC swapped 18357 3 hours ago 2017-03-23 19:29:32 UTC
#1606483: (Private) -
#1644323: Installing unity8-session-snap adversely effects unity7 96977 46 minutes ago 2017-03-23 21:43:50 UTC
#1528775: unnecessary logging of needBandwidth, totalBandwidth 80021 46 minutes ago 2017-03-23 21:43:10 UTC
#1509139: Shows "Chromium isn't your default browser" since 15.10. 98562 NEW 2017-03-20 2017-03-23 23:56:22 UTC
#1643843: Distorted colours after suspend / resume cycle 98832 3 hours ago 2017-03-23 18:32:37 UTC
#1642718: At least 3-5 minute gap between removing power cable and system notifying of event 98796 46 minutes ago 2017-03-23 21:43:52 UTC
#1480673: [ELAN 3320KD-3100] Asus T300 CHI bluetooth Touchpad is recognized incorrectly 98770 NEW 2017-03-20 2017-03-26 18:46:17 UTC
#1639337: Ubuntu 16.10 Abs_pressure not reported from kernel evdev to xserver-xorg-evdev 98575 RESOLVED FIXED 2017-03-20 2017-03-23 23:56:23 UTC
#1639372: CVE-2016-9082: DOS attack in converting SVG to PNG 98165 46 minutes ago 2017-03-23 21:43:52 UTC
#1635361: Touchpad Sensitivity is too High 97819 NEEDINFO 3 hours ago 2017-03-23 18:32:36 UTC
#1579182: [drm:intel_pipe_update_end [i915]] *ERROR* Atomic update failure on pipe A 94337 46 minutes ago 2017-03-23 21:43:48 UTC
#1579182: [drm:intel_pipe_update_end [i915]] *ERROR* Atomic update failure on pipe A 91883 REOPENED 3 hours ago 2017-03-23 18:32:27 UTC
#1614806: This package breaks "ark" rar support 93549 46 minutes ago 2017-03-23 21:43:45 UTC
#1619677: Intel Skylake video: no output on VGA port 97558 2 hours ago 2017-03-23 19:37:14 UTC
#1597079: [HP Pavilion Notebook - 15-ab141na] Black Screen when Booting 97605 1 hour ago 2017-03-23 20:39:29 UTC
#1635812: atril-thumbnailer crashed with SIGSEGV in cmsGetColorSpace() 97870 3 hours ago 2017-03-23 18:32:36 UTC
#1634451: Screen flickers when booting ubuntu 16.10 on USB stick 97875 CLOSED FIXED 2 hours ago 2017-03-23 19:37:14 UTC
#1621434: (Private) -
#1633520: Support dbus runtime relocation 98260 46 minutes ago 2017-03-23 21:43:52 UTC
#1629797: resolve service in nsswitch.conf adds 25 seconds to failed lookups before systemd-resolved is up 98254 6 hours ago 2017-03-23 15:42:30 UTC
#1539046: libGL error: failed to open drm device: Permission denied 98163 46 minutes ago 2017-03-23 21:43:52 UTC
#1619175: (Private) -
#1406810: [iMac11,1] Unable to boot 98046 46 minutes ago 2017-03-23 21:43:51 UTC
#1627214: Random display flickering on Kernel 4.8 with dual-screen 97596 6 hours ago 2017-03-23 15:42:30 UTC
#1619204: (Private) -
#1620461: (Private) -
#1628866: After upgrading to 16.10, Chrome has become unusable because of extremely slow update 85064 2 hours ago 2017-03-23 19:36:54 UTC
#1615204: select-by-word/triple-tap drag-select only works if tap very fast 95171 2 hours ago 2017-03-23 19:37:12 UTC
#1621719: Black screen when resuming laptop from sleep 96441 RESOLVED DUPLICATE 6 hours ago 2017-03-23 15:42:28 UTC
#1621719: Black screen when resuming laptop from sleep 93782 REOPENED 46 minutes ago 2017-03-23 21:43:46 UTC
#1621719: Black screen when resuming laptop from sleep 93509 46 minutes ago 2017-03-23 21:43:45 UTC
#1626255: WARNING: CPU: 1 PID: 64 at /build/linux-o309rM/linux-4.8.0/drivers/gpu/drm/i915/intel_pm.c:7866 sandybridge_pcode_write+0x109/0x1f0 [i915] 97826 3 hours ago 2017-03-23 18:32:36 UTC
#1619204: (Private) -
#1625932: Backlight does not change when adjust it higher than 50% after S3 97486 46 minutes ago 2017-03-23 21:43:51 UTC
#1619589: [138a:0090] Validity Sensors fingerprint reader not recognized 94536 NEW 46 minutes ago 2017-03-23 21:43:48 UTC
#1623160: touchpad too sensitive on slow movements 97819 NEEDINFO 2 hours ago 2017-03-23 19:37:14 UTC
175 of 6153 results